Time;durP1;ratioP1;P1;durP2;ratioP2;P2;SDS_P1;SDS_P2;PMS_P1;PMS_P2;Temp;Humidity;BMP_temperature;BMP_pressure;BME280_temperature;BME280_humidity;BME280_pressure;Samples;Min_cycle;Max_cycle;Signal;HPM_P1;HPM_P2
2022/09/09 00:00:46;;;;;;;0.75;0.47;;;;;;;;;;5091882;28;20536;-69
2022/09/09 00:03:16;;;;;;;0.47;0.47;;;;;;;;;;5099030;28;20208;-68
2022/09/09 00:05:46;;;;;;;0.50;0.50;;;;;;;;;;5090573;28;20655;-69
2022/09/09 00:08:20;;;;;;;1.35;0.52;;;;;;;;;;5079341;28;20588;-68
2022/09/09 00:10:51;;;;;;;0.50;0.40;;;;;;;;;;5080319;28;20223;-70
2022/09/09 00:13:23;;;;;;;0.82;0.50;;;;;;;;;;5080226;28;20208;-69
2022/09/09 00:15:56;;;;;;;0.70;0.50;;;;;;;;;;5079620;28;20204;-69
2022/09/09 00:18:26;;;;;;;0.85;0.52;;;;;;;;;;5086447;28;20196;-68
2022/09/09 00:20:57;;;;;;;0.60;0.50;;;;;;;;;;5100350;28;20215;-69
2022/09/09 00:23:26;;;;;;;2.13;0.70;;;;;;;;;;5100246;28;20227;-69
2022/09/09 00:26:00;;;;;;;0.50;0.50;;;;;;;;;;5100152;28;20215;-69
2022/09/09 00:28:31;;;;;;;0.90;0.70;;;;;;;;;;5099430;28;20544;-68
2022/09/09 00:31:02;;;;;;;0.57;0.57;;;;;;;;;;5080865;28;20312;-67
2022/09/09 00:33:31;;;;;;;0.40;0.40;;;;;;;;;;5095224;28;20529;-68
2022/09/09 00:35:59;;;;;;;0.80;0.60;;;;;;;;;;5099976;28;20234;-67
2022/09/09 00:38:30;;;;;;;0.85;0.55;;;;;;;;;;5089419;28;20200;-68
2022/09/09 00:41:02;;;;;;;1.05;0.57;;;;;;;;;;5079364;28;20204;-68
2022/09/09 00:43:31;;;;;;;0.65;0.55;;;;;;;;;;5079350;28;20216;-68
2022/09/09 00:46:16;;;;;;;0.60;0.50;;;;;;;;;;5079735;28;20204;-68
2022/09/09 00:48:50;;;;;;;0.52;0.52;;;;;;;;;;5078672;28;20236;-68
2022/09/09 00:51:24;;;;;;;0.63;0.50;;;;;;;;;;5079576;28;20544;-68
2022/09/09 00:54:02;;;;;;;1.23;0.60;;;;;;;;;;5079773;28;20227;-67
2022/09/09 00:56:36;;;;;;;0.57;0.57;;;;;;;;;;5083371;28;20211;-67
2022/09/09 00:59:09;;;;;;;1.70;0.40;;;;;;;;;;5099859;28;20202;-67
2022/09/09 01:01:39;;;;;;;0.90;0.60;;;;;;;;;;5099222;28;20490;-67
2022/09/09 01:04:08;;;;;;;0.55;0.55;;;;;;;;;;5098861;28;20607;-67
2022/09/09 01:06:38;;;;;;;0.60;0.60;;;;;;;;;;5098986;28;20203;-68
2022/09/09 01:09:18;;;;;;;0.98;0.40;;;;;;;;;;5090107;28;20212;-70
2022/09/09 01:11:51;;;;;;;0.73;0.60;;;;;;;;;;5079007;28;20231;-69
2022/09/09 01:14:25;;;;;;;0.63;0.50;;;;;;;;;;5080093;28;20200;-70
2022/09/09 01:16:56;;;;;;;0.65;0.50;;;;;;;;;;5079214;28;20247;-70
2022/09/09 01:19:30;;;;;;;0.90;0.60;;;;;;;;;;5078392;28;20580;-69
2022/09/09 01:22:01;;;;;;;0.88;0.43;;;;;;;;;;5078976;28;20211;-70
2022/09/09 01:24:32;;;;;;;0.52;0.50;;;;;;;;;;5078507;28;20212;-70
2022/09/09 01:27:02;;;;;;;0.90;0.50;;;;;;;;;;5084965;28;20793;-70
2022/09/09 01:29:30;;;;;;;1.30;0.60;;;;;;;;;;5098754;28;20222;-70
2022/09/09 01:31:58;;;;;;;1.52;0.50;;;;;;;;;;5098752;28;20227;-70
2022/09/09 01:34:27;;;;;;;0.75;0.50;;;;;;;;;;5098874;28;20215;-69
2022/09/09 01:36:58;;;;;;;0.98;0.50;;;;;;;;;;5098572;28;20362;-70
2022/09/09 01:39:25;;;;;;;1.27;0.60;;;;;;;;;;5098878;28;20207;-70
2022/09/09 01:41:52;;;;;;;0.80;0.52;;;;;;;;;;5092821;28;20196;-69
2022/09/09 01:44:22;;;;;;;1.13;0.68;;;;;;;;;;5078106;28;20204;-69
2022/09/09 01:46:49;;;;;;;1.00;0.50;;;;;;;;;;5083470;28;20227;-70
2022/09/09 01:49:17;;;;;;;1.10;0.50;;;;;;;;;;5078529;28;20204;-70
2022/09/09 01:51:45;;;;;;;1.10;0.57;;;;;;;;;;5090596;28;20227;-69
2022/09/09 01:54:12;;;;;;;1.58;0.60;;;;;;;;;;5088006;28;20218;-70
2022/09/09 01:56:45;;;;;;;0.75;0.55;;;;;;;;;;5077528;28;20208;-70
2022/09/09 01:59:20;;;;;;;0.68;0.60;;;;;;;;;;5077290;28;20508;-70
2022/09/09 02:01:55;;;;;;;0.68;0.40;;;;;;;;;;5079345;28;20204;-70
2022/09/09 02:04:38;;;;;;;0.57;0.50;;;;;;;;;;5097331;28;20609;-69
2022/09/09 02:07:08;;;;;;;0.85;0.55;;;;;;;;;;5097239;28;20204;-70
2022/09/09 02:09:36;;;;;;;1.30;0.55;;;;;;;;;;5084366;28;20209;-70
2022/09/09 02:12:07;;;;;;;0.65;0.60;;;;;;;;;;5081773;28;20234;-70
2022/09/09 02:14:37;;;;;;;0.60;0.60;;;;;;;;;;5085747;28;20531;-69
2022/09/09 02:17:10;;;;;;;0.60;0.50;;;;;;;;;;5077039;28;20205;-70
2022/09/09 02:19:38;;;;;;;0.45;0.43;;;;;;;;;;5077386;28;20204;-69
2022/09/09 02:22:06;;;;;;;0.77;0.50;;;;;;;;;;5077250;28;20823;-69
2022/09/09 02:24:35;;;;;;;0.50;0.50;;;;;;;;;;5077160;28;20205;-70
2022/09/09 02:27:03;;;;;;;0.50;0.50;;;;;;;;;;5076392;28;20587;-70
2022/09/09 02:29:33;;;;;;;0.60;0.50;;;;;;;;;;5088357;28;20223;-69
2022/09/09 02:32:02;;;;;;;1.35;0.60;;;;;;;;;;5096667;28;20230;-70
2022/09/09 02:34:33;;;;;;;0.60;0.50;;;;;;;;;;5096767;28;20196;-70
2022/09/09 02:37:01;;;;;;;0.52;0.50;;;;;;;;;;5096865;28;20207;-70
2022/09/09 02:39:28;;;;;;;0.70;0.55;;;;;;;;;;5096742;28;20208;-70
2022/09/09 02:41:56;;;;;;;0.52;0.50;;;;;;;;;;5082566;28;20196;-70
2022/09/09 02:44:23;;;;;;;0.60;0.60;;;;;;;;;;5079864;28;20203;-69
2022/09/09 02:47:06;;;;;;;0.70;0.50;;;;;;;;;;5094955;28;20242;-70
2022/09/09 02:49:37;;;;;;;0.70;0.60;;;;;;;;;;5096769;28;20204;-70
2022/09/09 02:52:07;;;;;;;1.20;0.65;;;;;;;;;;5078294;28;20227;-70
2022/09/09 02:54:36;;;;;;;0.80;0.60;;;;;;;;;;5079283;28;20219;-70
2022/09/09 02:57:05;;;;;;;0.50;0.50;;;;;;;;;;5076959;28;20212;-69
2022/09/09 02:59:33;;;;;;;0.73;0.60;;;;;;;;;;5076398;28;20255;-70
2022/09/09 03:02:01;;;;;;;0.60;0.50;;;;;;;;;;5076572;28;20215;-69
2022/09/09 03:04:28;;;;;;;0.88;0.55;;;;;;;;;;5076392;28;20211;-69
2022/09/09 03:06:57;;;;;;;0.90;0.60;;;;;;;;;;5076896;28;20290;-70
2022/09/09 03:09:25;;;;;;;0.60;0.50;;;;;;;;;;5079284;28;20470;-70
2022/09/09 03:11:54;;;;;;;0.98;0.52;;;;;;;;;;5097344;28;20544;-69
2022/09/09 03:14:24;;;;;;;0.50;0.50;;;;;;;;;;5097492;28;20620;-70
2022/09/09 03:16:52;;;;;;;0.60;0.50;;;;;;;;;;5097154;28;20204;-70
2022/09/09 03:19:19;;;;;;;1.33;0.60;;;;;;;;;;5096914;28;20204;-70
2022/09/09 03:21:47;;;;;;;0.47;0.47;;;;;;;;;;5093118;28;20568;-69
2022/09/09 03:24:16;;;;;;;0.40;0.40;;;;;;;;;;5076623;28;20204;-69
2022/09/09 03:26:45;;;;;;;0.50;0.40;;;;;;;;;;5076338;28;20205;-69
2022/09/09 03:29:13;;;;;;;0.95;0.60;;;;;;;;;;5089085;28;20200;-69
2022/09/09 03:31:41;;;;;;;0.82;0.60;;;;;;;;;;5096487;28;20261;-69
2022/09/09 03:34:08;;;;;;;0.73;0.43;;;;;;;;;;5096494;28;20234;-69
2022/09/09 03:36:36;;;;;;;0.60;0.57;;;;;;;;;;5096759;28;20219;-69
2022/09/09 03:39:03;;;;;;;0.52;0.52;;;;;;;;;;5079944;28;20200;-70
2022/09/09 03:41:34;;;;;;;1.55;0.60;;;;;;;;;;5080567;28;20204;-70
2022/09/09 03:44:01;;;;;;;0.60;0.57;;;;;;;;;;5084086;28;20200;-70
2022/09/09 03:46:28;;;;;;;1.00;0.50;;;;;;;;;;5080041;28;20216;-71
2022/09/09 03:48:56;;;;;;;1.45;0.60;;;;;;;;;;5099802;28;20214;-70
2022/09/09 03:51:24;;;;;;;0.63;0.50;;;;;;;;;;5099919;28;20222;-70
2022/09/09 03:53:52;;;;;;;0.70;0.60;;;;;;;;;;5099946;28;20285;-70
2022/09/09 03:56:21;;;;;;;1.20;0.40;;;;;;;;;;5099966;28;20269;-70
2022/09/09 03:58:50;;;;;;;0.73;0.60;;;;;;;;;;5099562;28;20265;-69
2022/09/09 04:01:17;;;;;;;0.70;0.50;;;;;;;;;;5090948;28;20200;-70
2022/09/09 04:03:45;;;;;;;0.60;0.57;;;;;;;;;;5099900;28;20206;-69
2022/09/09 04:06:14;;;;;;;0.60;0.60;;;;;;;;;;5098337;28;20208;-69
2022/09/09 04:08:41;;;;;;;0.50;0.50;;;;;;;;;;5100099;28;20257;-69
2022/09/09 04:11:09;;;;;;;0.80;0.60;;;;;;;;;;5099625;28;20204;-70
2022/09/09 04:13:38;;;;;;;0.80;0.50;;;;;;;;;;5099548;28;20608;-70
2022/09/09 04:16:08;;;;;;;0.95;0.40;;;;;;;;;;5089001;28;20491;-70
2022/09/09 04:18:35;;;;;;;0.70;0.40;;;;;;;;;;5095132;28;20447;-70
2022/09/09 04:21:03;;;;;;;1.25;0.50;;;;;;;;;;5078704;28;20200;-70
2022/09/09 04:23:30;;;;;;;1.13;0.65;;;;;;;;;;5079415;28;20200;-70
2022/09/09 04:25:59;;;;;;;0.80;0.60;;;;;;;;;;5078921;28;20215;-70
2022/09/09 04:28:27;;;;;;;0.63;0.50;;;;;;;;;;5092947;28;20472;-69
2022/09/09 04:30:55;;;;;;;0.50;0.50;;;;;;;;;;5099507;28;20475;-70
2022/09/09 04:33:26;;;;;;;0.77;0.60;;;;;;;;;;5098548;28;20219;-70
2022/09/09 04:35:55;;;;;;;0.90;0.57;;;;;;;;;;5098502;28;20498;-70
2022/09/09 04:38:23;;;;;;;2.63;0.60;;;;;;;;;;5092268;28;20196;-70
2022/09/09 04:40:51;;;;;;;0.50;0.40;;;;;;;;;;5078302;28;20212;-70
2022/09/09 04:43:19;;;;;;;0.60;0.60;;;;;;;;;;5077882;28;20231;-69
2022/09/09 04:45:48;;;;;;;0.50;0.50;;;;;;;;;;5077926;28;20227;-71
2022/09/09 04:48:16;;;;;;;0.68;0.50;;;;;;;;;;5077428;28;20236;-69
2022/09/09 04:50:46;;;;;;;1.02;0.57;;;;;;;;;;5077387;28;20204;-69
2022/09/09 04:53:13;;;;;;;0.70;0.70;;;;;;;;;;5076790;28;20662;-69
2022/09/09 04:55:41;;;;;;;0.50;0.50;;;;;;;;;;5076748;28;20208;-69
2022/09/09 04:58:09;;;;;;;0.50;0.50;;;;;;;;;;5076898;28;20204;-70
2022/09/09 05:00:37;;;;;;;0.50;0.50;;;;;;;;;;5085058;28;20210;-69
2022/09/09 05:03:05;;;;;;;0.60;0.50;;;;;;;;;;5095671;28;20199;-69
2022/09/09 05:05:34;;;;;;;0.40;0.40;;;;;;;;;;5096177;28;20269;-69
2022/09/09 05:08:04;;;;;;;0.80;0.68;;;;;;;;;;5095326;28;20634;-69
2022/09/09 05:10:32;;;;;;;1.88;0.40;;;;;;;;;;5083696;28;20196;-69
2022/09/09 05:13:00;;;;;;;0.50;0.50;;;;;;;;;;5076467;28;20628;-69
2022/09/09 05:15:27;;;;;;;0.90;0.70;;;;;;;;;;5085976;28;20192;-69
2022/09/09 05:17:59;;;;;;;1.08;0.60;;;;;;;;;;5076483;28;20231;-70
2022/09/09 05:20:26;;;;;;;1.25;0.68;;;;;;;;;;5075828;28;20214;-69
2022/09/09 05:22:54;;;;;;;0.65;0.50;;;;;;;;;;5074954;28;20211;-69
2022/09/09 05:25:25;;;;;;;0.40;0.40;;;;;;;;;;5075358;28;20585;-70
2022/09/09 05:27:53;;;;;;;0.57;0.57;;;;;;;;;;5074978;28;20196;-70
2022/09/09 05:30:22;;;;;;;0.50;0.50;;;;;;;;;;5080977;28;20542;-70
2022/09/09 05:32:50;;;;;;;0.75;0.50;;;;;;;;;;5095357;28;20215;-69
2022/09/09 05:35:19;;;;;;;0.65;0.55;;;;;;;;;;5095857;28;20230;-71
2022/09/09 05:37:46;;;;;;;0.50;0.50;;;;;;;;;;5095427;28;20230;-68
2022/09/09 05:40:14;;;;;;;0.82;0.80;;;;;;;;;;5094548;28;20269;-69
2022/09/09 05:42:43;;;;;;;0.73;0.52;;;;;;;;;;5088761;28;20276;-69
2022/09/09 05:45:11;;;;;;;0.80;0.70;;;;;;;;;;5088688;28;20203;-69
2022/09/09 05:47:38;;;;;;;0.70;0.70;;;;;;;;;;5092422;28;20520;-69
2022/09/09 05:50:07;;;;;;;0.60;0.50;;;;;;;;;;5077202;28;20200;-70
2022/09/09 05:52:34;;;;;;;0.80;0.70;;;;;;;;;;5074720;28;20215;-70
2022/09/09 05:55:04;;;;;;;0.70;0.60;;;;;;;;;;5074565;28;20208;-70
2022/09/09 05:57:31;;;;;;;0.60;0.60;;;;;;;;;;5075061;28;20630;-70
2022/09/09 06:00:00;;;;;;;0.65;0.65;;;;;;;;;;5077886;28;20198;-69
2022/09/09 06:02:27;;;;;;;0.93;0.60;;;;;;;;;;5073880;28;20212;-69
2022/09/09 06:04:55;;;;;;;0.70;0.52;;;;;;;;;;5074654;28;20204;-69
2022/09/09 06:07:22;;;;;;;0.50;0.50;;;;;;;;;;5075101;28;20243;-69
2022/09/09 06:09:51;;;;;;;0.60;0.60;;;;;;;;;;5080249;28;20488;-70
2022/09/09 06:12:18;;;;;;;0.50;0.50;;;;;;;;;;5095198;28;20269;-69
2022/09/09 06:14:46;;;;;;;0.60;0.60;;;;;;;;;;5095794;28;20241;-69
2022/09/09 06:17:14;;;;;;;0.50;0.50;;;;;;;;;;5083527;28;20657;-69
2022/09/09 06:19:42;;;;;;;1.05;0.70;;;;;;;;;;5073732;28;20208;-70
2022/09/09 06:22:12;;;;;;;0.52;0.50;;;;;;;;;;5087177;28;20199;-70
2022/09/09 06:24:39;;;;;;;1.17;0.60;;;;;;;;;;5095103;28;20210;-68
2022/09/09 06:27:07;;;;;;;1.00;0.50;;;;;;;;;;5089636;28;20192;-69
2022/09/09 06:29:34;;;;;;;0.60;0.60;;;;;;;;;;5094856;28;20250;-69
2022/09/09 06:32:02;;;;;;;0.57;0.52;;;;;;;;;;5094237;28;20608;-68
2022/09/09 06:34:30;;;;;;;0.60;0.50;;;;;;;;;;5093926;28;20859;-69
2022/09/09 06:36:58;;;;;;;0.50;0.50;;;;;;;;;;5094171;28;20504;-69
2022/09/09 06:39:26;;;;;;;0.82;0.70;;;;;;;;;;5085042;28;20204;-69
2022/09/09 06:41:53;;;;;;;0.60;0.60;;;;;;;;;;5083950;28;20207;-69
2022/09/09 06:44:22;;;;;;;0.68;0.60;;;;;;;;;;5094985;28;20549;-70
2022/09/09 06:46:49;;;;;;;0.65;0.57;;;;;;;;;;5080585;28;20228;-70
2022/09/09 06:49:17;;;;;;;0.70;0.50;;;;;;;;;;5074764;28;20231;-70
2022/09/09 06:51:46;;;;;;;1.08;0.70;;;;;;;;;;5090741;28;20207;-70
2022/09/09 06:54:13;;;;;;;0.70;0.60;;;;;;;;;;5089437;28;20298;-70
2022/09/09 06:56:43;;;;;;;0.60;0.60;;;;;;;;;;5076067;28;20214;-70
2022/09/09 06:59:11;;;;;;;0.90;0.70;;;;;;;;;;5095248;28;20260;-69
2022/09/09 07:01:40;;;;;;;1.40;0.50;;;;;;;;;;5090895;28;20192;-69
2022/09/09 07:04:09;;;;;;;0.65;0.65;;;;;;;;;;5074777;28;20200;-69
2022/09/09 07:06:37;;;;;;;1.17;0.65;;;;;;;;;;5089243;28;20196;-73
2022/09/09 07:09:06;;;;;;;0.60;0.60;;;;;;;;;;5094837;28;20214;-70
2022/09/09 07:11:34;;;;;;;1.42;0.50;;;;;;;;;;5094970;28;20204;-69
2022/09/09 07:14:03;;;;;;;0.95;0.60;;;;;;;;;;5087517;28;20514;-69
2022/09/09 07:16:33;;;;;;;0.60;0.60;;;;;;;;;;5077189;28;20216;-69
2022/09/09 07:19:02;;;;;;;1.02;0.70;;;;;;;;;;5078208;28;20196;-69
2022/09/09 07:21:30;;;;;;;0.60;0.60;;;;;;;;;;5099328;28;20295;-70
2022/09/09 07:23:58;;;;;;;1.25;0.80;;;;;;;;;;5079952;28;20220;-71
2022/09/09 07:26:27;;;;;;;0.50;0.50;;;;;;;;;;5084714;28;20204;-70
2022/09/09 07:28:55;;;;;;;0.70;0.68;;;;;;;;;;5083708;28;20288;-73
2022/09/09 07:31:24;;;;;;;1.38;0.70;;;;;;;;;;5086060;28;20200;-69
2022/09/09 07:33:51;;;;;;;0.50;0.50;;;;;;;;;;5094751;28;20615;-70
2022/09/09 07:36:21;;;;;;;0.90;0.77;;;;;;;;;;5097616;28;20211;-70
2022/09/09 07:38:51;;;;;;;0.95;0.68;;;;;;;;;;5098011;28;20261;-69
2022/09/09 07:41:20;;;;;;;1.40;0.60;;;;;;;;;;5098186;28;20234;-69
2022/09/09 07:43:49;;;;;;;1.05;0.65;;;;;;;;;;5098135;28;20206;-69
2022/09/09 07:46:18;;;;;;;0.45;0.45;;;;;;;;;;5097847;28;20298;-70
2022/09/09 07:48:46;;;;;;;0.80;0.73;;;;;;;;;;5097763;28;20235;-70
2022/09/09 07:51:19;;;;;;;0.70;0.70;;;;;;;;;;5096756;28;20278;-70
2022/09/09 07:53:47;;;;;;;0.90;0.70;;;;;;;;;;5080148;28;20220;-70
2022/09/09 07:56:16;;;;;;;0.50;0.50;;;;;;;;;;5093458;28;20226;-70
2022/09/09 07:58:44;;;;;;;0.90;0.63;;;;;;;;;;5098111;28;20211;-70
2022/09/09 08:01:14;;;;;;;0.60;0.60;;;;;;;;;;5092150;28;20207;-69
2022/09/09 08:03:41;;;;;;;1.50;0.60;;;;;;;;;;5078944;28;20203;-70
2022/09/09 08:06:10;;;;;;;1.02;0.60;;;;;;;;;;5096764;28;20202;-70
2022/09/09 08:08:38;;;;;;;1.17;0.60;;;;;;;;;;5097830;28;20214;-70
2022/09/09 08:11:07;;;;;;;0.82;0.75;;;;;;;;;;5086889;28;20202;-69
2022/09/09 08:13:35;;;;;;;2.67;1.20;;;;;;;;;;5092426;28;20491;-69
2022/09/09 08:16:06;;;;;;;1.23;0.90;;;;;;;;;;5080499;28;20205;-70
2022/09/09 08:18:35;;;;;;;1.40;1.05;;;;;;;;;;5076388;28;20204;-69
2022/09/09 08:21:11;;;;;;;1.67;1.10;;;;;;;;;;5085836;28;20196;-70
2022/09/09 08:23:39;;;;;;;1.55;0.95;;;;;;;;;;5097226;28;20291;-70
2022/09/09 08:26:11;;;;;;;1.40;1.00;;;;;;;;;;5095865;28;20211;-70
2022/09/09 08:28:39;;;;;;;1.52;1.27;;;;;;;;;;5096180;28;20214;-70
2022/09/09 08:31:07;;;;;;;2.45;1.42;;;;;;;;;;5095090;28;20199;-69
2022/09/09 08:33:38;;;;;;;1.83;1.40;;;;;;;;;;5095078;28;20212;-70
2022/09/09 08:36:05;;;;;;;1.88;1.00;;;;;;;;;;5076370;28;20219;-70
2022/09/09 08:38:33;;;;;;;1.67;1.25;;;;;;;;;;5075812;28;20623;-70
2022/09/09 08:41:06;;;;;;;2.22;1.38;;;;;;;;;;5081315;28;20386;-70
2022/09/09 08:43:34;;;;;;;1.65;1.05;;;;;;;;;;5095141;28;20230;-70
2022/09/09 08:46:08;;;;;;;2.50;1.17;;;;;;;;;;5096642;28;20214;-69
2022/09/09 08:48:44;;;;;;;2.65;1.10;;;;;;;;;;5095793;28;20338;-70
2022/09/09 08:51:12;;;;;;;3.42;1.42;;;;;;;;;;5089110;28;20588;-70
2022/09/09 08:53:41;;;;;;;1.65;1.23;;;;;;;;;;5075974;28;20216;-70
2022/09/09 08:56:11;;;;;;;2.10;1.40;;;;;;;;;;5075833;28;20205;-70
2022/09/09 08:58:43;;;;;;;1.35;1.23;;;;;;;;;;5074352;28;20665;-69
2022/09/09 09:01:26;;;;;;;1.67;1.10;;;;;;;;;;5075676;28;20704;-70
2022/09/09 09:03:57;;;;;;;1.85;0.95;;;;;;;;;;5074978;28;20246;-69
2022/09/09 09:06:29;;;;;;;1.77;1.35;;;;;;;;;;5075133;28;20204;-69
2022/09/09 09:09:01;;;;;;;2.05;1.10;;;;;;;;;;5075109;28;20541;-69
2022/09/09 09:11:29;;;;;;;1.77;0.95;;;;;;;;;;5083101;28;20499;-70
2022/09/09 09:13:59;;;;;;;1.70;0.90;;;;;;;;;;5074846;28;20224;-69
2022/09/09 09:16:32;;;;;;;1.50;1.20;;;;;;;;;;5076159;28;20207;-70
2022/09/09 09:19:01;;;;;;;2.13;1.10;;;;;;;;;;5079198;28;20227;-70
2022/09/09 09:21:35;;;;;;;1.83;1.00;;;;;;;;;;5095591;28;20219;-70
2022/09/09 09:24:04;;;;;;;3.13;1.27;;;;;;;;;;5095563;28;20579;-70
2022/09/09 09:26:34;;;;;;;1.38;1.10;;;;;;;;;;5095318;28;20195;-70
2022/09/09 09:29:03;;;;;;;1.55;1.10;;;;;;;;;;5094508;28;20200;-70
2022/09/09 09:31:31;;;;;;;1.35;1.05;;;;;;;;;;5079746;28;20212;-69
2022/09/09 09:34:00;;;;;;;1.42;1.20;;;;;;;;;;5081544;28;20203;-70
2022/09/09 09:36:35;;;;;;;1.27;1.00;;;;;;;;;;5092998;28;20215;-70
2022/09/09 09:39:05;;;;;;;1.48;1.00;;;;;;;;;;5094304;28;20202;-69
2022/09/09 09:41:34;;;;;;;1.85;0.90;;;;;;;;;;5074317;28;20200;-70
2022/09/09 09:44:01;;;;;;;1.63;1.00;;;;;;;;;;5075217;28;20204;-69
2022/09/09 09:46:29;;;;;;;1.67;1.00;;;;;;;;;;5082319;28;20188;-70
2022/09/09 09:49:03;;;;;;;1.52;1.00;;;;;;;;;;5089001;28;20227;-70
2022/09/09 09:51:32;;;;;;;1.25;1.00;;;;;;;;;;5078839;28;20206;-70
2022/09/09 09:54:09;;;;;;;2.97;0.90;;;;;;;;;;5093992;28;20261;-70
2022/09/09 09:56:37;;;;;;;1.13;0.88;;;;;;;;;;5093922;28;20247;-70
2022/09/09 09:59:05;;;;;;;2.25;0.80;;;;;;;;;;5087517;28;20201;-70
2022/09/09 10:01:33;;;;;;;2.30;1.08;;;;;;;;;;5089487;28;20550;-70
2022/09/09 10:04:04;;;;;;;2.50;0.90;;;;;;;;;;5073340;28;20337;-70
2022/09/09 10:06:32;;;;;;;0.80;0.70;;;;;;;;;;5073071;28;20196;-70
2022/09/09 10:09:01;;;;;;;1.52;0.90;;;;;;;;;;5074827;28;20207;-70
2022/09/09 10:11:35;;;;;;;1.48;0.88;;;;;;;;;;5082321;28;20503;-70
2022/09/09 10:14:07;;;;;;;1.38;0.90;;;;;;;;;;5093826;28;20214;-70
2022/09/09 10:16:41;;;;;;;1.13;0.90;;;;;;;;;;5082240;28;20758;-70
2022/09/09 10:19:14;;;;;;;0.85;0.70;;;;;;;;;;5093180;28;20206;-70
2022/09/09 10:21:53;;;;;;;1.55;1.00;;;;;;;;;;5093636;28;20199;-70
2022/09/09 10:24:35;;;;;;;1.58;0.70;;;;;;;;;;5093111;28;20200;-70
2022/09/09 10:27:05;;;;;;;1.67;1.10;;;;;;;;;;5088372;28;20211;-70
2022/09/09 10:29:43;;;;;;;1.25;0.90;;;;;;;;;;5084621;28;20200;-69
2022/09/09 10:32:19;;;;;;;0.95;0.88;;;;;;;;;;5074829;28;20192;-70
2022/09/09 10:34:55;;;;;;;1.15;0.80;;;;;;;;;;5093613;28;20650;-69
2022/09/09 10:37:31;;;;;;;1.00;0.90;;;;;;;;;;5093380;28;20203;-70
2022/09/09 10:40:02;;;;;;;1.42;1.00;;;;;;;;;;5093197;28;20523;-70
2022/09/09 10:42:32;;;;;;;2.15;1.05;;;;;;;;;;5093246;28;20195;-70
2022/09/09 10:45:06;;;;;;;1.63;0.85;;;;;;;;;;5075393;28;20256;-69
2022/09/09 10:47:50;;;;;;;1.13;0.73;;;;;;;;;;5073237;28;20219;-70
2022/09/09 10:50:28;;;;;;;1.70;0.77;;;;;;;;;;5072780;28;20674;-70
2022/09/09 10:53:03;;;;;;;2.17;0.90;;;;;;;;;;5073703;28;20206;-70
2022/09/09 10:55:37;;;;;;;1.23;0.75;;;;;;;;;;5072356;28;20223;-69
2022/09/09 10:58:06;;;;;;;1.10;0.80;;;;;;;;;;5085278;28;20200;-69
2022/09/09 11:00:39;;;;;;;1.35;0.95;;;;;;;;;;5078308;28;20254;-69
2022/09/09 11:03:08;;;;;;;1.60;0.90;;;;;;;;;;5080883;28;20266;-70
2022/09/09 11:05:41;;;;;;;0.82;0.70;;;;;;;;;;5092909;28;20227;-69
2022/09/09 11:08:12;;;;;;;1.25;0.73;;;;;;;;;;5093409;28;20195;-69
2022/09/09 11:10:42;;;;;;;1.63;0.88;;;;;;;;;;5093139;28;20645;-69
2022/09/09 11:13:15;;;;;;;1.00;0.70;;;;;;;;;;5075461;28;20214;-69
2022/09/09 11:15:44;;;;;;;1.88;0.90;;;;;;;;;;5090112;28;20231;-69
2022/09/09 11:18:15;;;;;;;1.30;0.80;;;;;;;;;;5093537;28;20679;-70
2022/09/09 11:20:45;;;;;;;2.33;0.80;;;;;;;;;;5084237;28;20196;-70
2022/09/09 11:23:13;;;;;;;1.10;0.90;;;;;;;;;;5072174;28;20204;-70
2022/09/09 11:25:42;;;;;;;1.70;0.73;;;;;;;;;;5072880;28;20211;-69
2022/09/09 11:28:22;;;;;;;1.15;0.80;;;;;;;;;;5075115;28;20204;-70
2022/09/09 11:30:52;;;;;;;1.70;0.70;;;;;;;;;;5092237;28;20226;-70
2022/09/09 11:33:38;;;;;;;1.00;0.70;;;;;;;;;;5090978;28;20761;-70
2022/09/09 11:36:19;;;;;;;1.13;0.85;;;;;;;;;;5091295;28;20223;-70
2022/09/09 11:38:47;;;;;;;1.52;0.73;;;;;;;;;;5085366;28;20210;-70
2022/09/09 11:41:16;;;;;;;1.45;0.75;;;;;;;;;;5090716;28;20207;-69
2022/09/09 11:43:44;;;;;;;1.80;0.90;;;;;;;;;;5091104;28;20195;-70
2022/09/09 11:46:12;;;;;;;1.83;0.80;;;;;;;;;;5080624;28;20208;-70
2022/09/09 11:48:43;;;;;;;1.05;0.60;;;;;;;;;;5091545;28;20236;-68
2022/09/09 11:51:12;;;;;;;1.33;0.70;;;;;;;;;;5075191;28;20200;-69
2022/09/09 11:53:50;;;;;;;1.38;0.63;;;;;;;;;;5072294;28;20246;-69
2022/09/09 11:56:26;;;;;;;0.82;0.65;;;;;;;;;;5077104;28;20744;-69
2022/09/09 11:58:58;;;;;;;1.88;0.70;;;;;;;;;;5071926;28;20257;-69
2022/09/09 12:01:35;;;;;;;1.20;0.85;;;;;;;;;;5086159;28;20265;-68
2022/09/09 12:04:08;;;;;;;1.52;0.90;;;;;;;;;;5096421;28;20211;-68
2022/09/09 12:06:43;;;;;;;2.15;0.80;;;;;;;;;;5095669;28;20200;-69
2022/09/09 12:09:21;;;;;;;1.30;0.70;;;;;;;;;;5095294;28;20570;-69
2022/09/09 12:11:48;;;;;;;1.77;0.90;;;;;;;;;;5095217;28;20215;-69
2022/09/09 12:14:23;;;;;;;1.13;0.63;;;;;;;;;;5095461;28;20203;-69
2022/09/09 12:16:51;;;;;;;1.77;0.77;;;;;;;;;;5074418;28;20230;-69
2022/09/09 12:19:21;;;;;;;1.30;0.60;;;;;;;;;;5075540;28;20212;-69
2022/09/09 12:21:53;;;;;;;1.50;0.80;;;;;;;;;;5080827;28;20218;-68
2022/09/09 12:24:25;;;;;;;1.35;0.70;;;;;;;;;;5078109;28;20200;-69
2022/09/09 12:26:58;;;;;;;1.45;0.80;;;;;;;;;;5075724;28;20200;-69
2022/09/09 12:29:28;;;;;;;1.75;0.80;;;;;;;;;;5075169;28;20212;-69
2022/09/09 12:32:00;;;;;;;1.05;0.70;;;;;;;;;;5075954;28;20265;-69
2022/09/09 12:34:33;;;;;;;1.52;0.65;;;;;;;;;;5079880;28;20611;-69
2022/09/09 12:37:04;;;;;;;1.05;0.60;;;;;;;;;;5075878;28;20292;-69
2022/09/09 12:39:34;;;;;;;0.82;0.70;;;;;;;;;;5075726;28;20755;-69
2022/09/09 12:42:03;;;;;;;1.00;0.70;;;;;;;;;;5074746;28;20211;-69
2022/09/09 12:44:32;;;;;;;1.35;0.65;;;;;;;;;;5075253;28;20594;-69
2022/09/09 12:47:02;;;;;;;1.45;0.68;;;;;;;;;;5075827;28;20541;-69
2022/09/09 12:49:33;;;;;;;1.15;0.68;;;;;;;;;;5080488;28;20219;-69
2022/09/09 12:52:03;;;;;;;1.17;0.77;;;;;;;;;;5080813;28;20187;-69
2022/09/09 12:54:30;;;;;;;1.70;0.82;;;;;;;;;;5095290;28;20718;-68
2022/09/09 12:56:59;;;;;;;1.88;0.80;;;;;;;;;;5095860;28;20230;-68
2022/09/09 12:59:27;;;;;;;1.27;0.60;;;;;;;;;;5094385;28;20215;-68
2022/09/09 13:01:58;;;;;;;1.00;0.60;;;;;;;;;;5083176;28;20239;-69
2022/09/09 13:04:25;;;;;;;1.23;0.60;;;;;;;;;;5081457;28;20474;-68
2022/09/09 13:06:53;;;;;;;0.60;0.50;;;;;;;;;;5089807;28;20196;-68
2022/09/09 13:09:21;;;;;;;0.70;0.60;;;;;;;;;;5075025;28;20213;-68
2022/09/09 13:11:49;;;;;;;1.25;0.50;;;;;;;;;;5074275;28;20208;-68
2022/09/09 13:14:20;;;;;;;1.30;0.80;;;;;;;;;;5076996;28;20196;-67
2022/09/09 13:16:56;;;;;;;1.25;0.60;;;;;;;;;;5080272;28;20246;-68
2022/09/09 13:19:25;;;;;;;0.95;0.50;;;;;;;;;;5095429;28;20199;-68
2022/09/09 13:21:53;;;;;;;1.08;0.40;;;;;;;;;;5095365;28;20207;-68
2022/09/09 13:24:29;;;;;;;1.33;0.50;;;;;;;;;;5076569;28;20262;-68
2022/09/09 13:26:57;;;;;;;1.23;0.63;;;;;;;;;;5075390;28;20188;-68
2022/09/09 13:29:26;;;;;;;2.38;0.70;;;;;;;;;;5074181;28;20204;-68
2022/09/09 13:31:55;;;;;;;0.77;0.60;;;;;;;;;;5084984;28;20204;-68
2022/09/09 13:34:28;;;;;;;0.68;0.50;;;;;;;;;;5093807;28;20200;-68
2022/09/09 13:37:01;;;;;;;0.93;0.60;;;;;;;;;;5092268;28;20222;-68
2022/09/09 13:39:28;;;;;;;0.98;0.60;;;;;;;;;;5078711;28;20211;-68
2022/09/09 13:41:57;;;;;;;0.95;0.55;;;;;;;;;;5085534;28;20765;-68
2022/09/09 13:44:27;;;;;;;1.02;0.65;;;;;;;;;;5090832;28;20570;-68
2022/09/09 13:47:04;;;;;;;1.10;0.60;;;;;;;;;;5094410;28;20227;-68
2022/09/09 13:49:33;;;;;;;1.02;0.70;;;;;;;;;;5094174;28;20203;-68
2022/09/09 13:52:07;;;;;;;1.20;0.70;;;;;;;;;;5094344;28;20211;-68
2022/09/09 13:54:35;;;;;;;2.13;0.77;;;;;;;;;;5091371;28;20225;-68
2022/09/09 13:57:04;;;;;;;1.60;0.70;;;;;;;;;;5093992;28;20242;-68
2022/09/09 13:59:32;;;;;;;0.98;0.80;;;;;;;;;;5095593;28;20229;-68
2022/09/09 14:02:01;;;;;;;1.35;0.70;;;;;;;;;;5096012;28;20214;-68
2022/09/09 14:04:28;;;;;;;0.85;0.68;;;;;;;;;;5094647;28;20786;-68
2022/09/09 14:06:57;;;;;;;1.70;0.90;;;;;;;;;;5084889;28;20212;-68
2022/09/09 14:09:24;;;;;;;1.50;0.82;;;;;;;;;;5074493;28;20243;-68
2022/09/09 14:11:51;;;;;;;1.77;0.90;;;;;;;;;;5078672;28;20199;-68
2022/09/09 14:14:19;;;;;;;0.77;0.70;;;;;;;;;;5094133;28;20199;-68
2022/09/09 14:16:47;;;;;;;1.48;0.60;;;;;;;;;;5093205;28;20219;-68
2022/09/09 14:19:15;;;;;;;1.55;0.90;;;;;;;;;;5094216;28;20215;-67
2022/09/09 14:21:42;;;;;;;1.25;0.90;;;;;;;;;;5092954;28;20524;-68
2022/09/09 14:24:09;;;;;;;0.75;0.75;;;;;;;;;;5093215;28;20243;-68
2022/09/09 14:26:37;;;;;;;1.08;0.80;;;;;;;;;;5093358;28;20210;-68
2022/09/09 14:29:04;;;;;;;1.20;0.80;;;;;;;;;;5091533;28;20208;-68
2022/09/09 14:31:31;;;;;;;1.55;1.02;;;;;;;;;;5094160;28;20598;-68
2022/09/09 14:34:00;;;;;;;1.27;0.98;;;;;;;;;;5081477;28;20200;-68
2022/09/09 14:36:28;;;;;;;0.70;0.70;;;;;;;;;;5082335;28;20773;-68
2022/09/09 14:38:55;;;;;;;2.60;0.80;;;;;;;;;;5094673;28;20615;-68
2022/09/09 14:41:23;;;;;;;1.70;0.90;;;;;;;;;;5080169;28;20199;-68
2022/09/09 14:43:51;;;;;;;1.67;0.95;;;;;;;;;;5094899;28;20255;-68
2022/09/09 14:46:20;;;;;;;2.00;0.85;;;;;;;;;;5085097;28;20196;-68
2022/09/09 14:48:48;;;;;;;1.67;0.68;;;;;;;;;;5073273;28;20244;-68
2022/09/09 14:51:19;;;;;;;1.10;0.77;;;;;;;;;;5087174;28;20199;-68
2022/09/09 14:53:47;;;;;;;2.22;1.10;;;;;;;;;;5093517;28;20204;-67
2022/09/09 14:56:15;;;;;;;2.08;0.80;;;;;;;;;;5074593;28;20246;-68
2022/09/09 14:58:43;;;;;;;1.50;0.70;;;;;;;;;;5094242;28;20211;-68